sensor_id;sensor_type;location;lat;lon;timestamp;pressure;altitude;pressure_sealevel;temperature;humidity
43217;BME280;60511;42.686;23.300;2022-07-10T00:01:54;94624.63;;;26.92;36.86
43217;BME280;60511;42.686;23.300;2022-07-10T00:03:54;94628.13;;;26.92;36.88
43217;BME280;60511;42.686;23.300;2022-07-10T00:05:55;94622.75;;;26.96;37.08
43217;BME280;60511;42.686;23.300;2022-07-10T00:07:55;94622.66;;;26.89;37.07
43217;BME280;60511;42.686;23.300;2022-07-10T00:09:55;94624.59;;;26.88;36.99
43217;BME280;60511;42.686;23.300;2022-07-10T00:11:56;94626.59;;;26.95;36.96
43217;BME280;60511;42.686;23.300;2022-07-10T00:13:56;94621.56;;;26.97;36.81
43217;BME280;60511;42.686;23.300;2022-07-10T00:15:57;94623.09;;;26.94;36.82
43217;BME280;60511;42.686;23.300;2022-07-10T00:17:57;94622.75;;;26.96;36.81
43217;BME280;60511;42.686;23.300;2022-07-10T00:19:57;94619.66;;;26.97;36.87
43217;BME280;60511;42.686;23.300;2022-07-10T00:21:58;94623.47;;;26.93;37.07
43217;BME280;60511;42.686;23.300;2022-07-10T00:23:59;94618.44;;;26.95;36.81
43217;BME280;60511;42.686;23.300;2022-07-10T00:25:59;94616.91;;;26.94;37.08
43217;BME280;60511;42.686;23.300;2022-07-10T00:28:00;94606.00;;;26.90;36.92
43217;BME280;60511;42.686;23.300;2022-07-10T00:30:00;94608.34;;;26.92;36.76
43217;BME280;60511;42.686;23.300;2022-07-10T00:32:01;94609.09;;;26.89;36.90
43217;BME280;60511;42.686;23.300;2022-07-10T00:34:02;94611.44;;;26.90;37.05
43217;BME280;60511;42.686;23.300;2022-07-10T00:36:04;94607.22;;;26.96;36.94
43217;BME280;60511;42.686;23.300;2022-07-10T00:38:05;94611.50;;;26.97;36.89
43217;BME280;60511;42.686;23.300;2022-07-10T00:40:06;94609.16;;;26.96;36.92
43217;BME280;60511;42.686;23.300;2022-07-10T00:42:10;94607.59;;;26.95;36.98
43217;BME280;60511;42.686;23.300;2022-07-10T00:44:12;94608.34;;;26.92;36.98
43217;BME280;60511;42.686;23.300;2022-07-10T00:46:12;94601.00;;;26.96;36.80
43217;BME280;60511;42.686;23.300;2022-07-10T00:48:15;94607.97;;;26.93;36.92
43217;BME280;60511;42.686;23.300;2022-07-10T00:50:15;94601.34;;;26.87;36.84
43217;BME280;60511;42.686;23.300;2022-07-10T00:52:16;94595.16;;;26.94;36.91
43217;BME280;60511;42.686;23.300;2022-07-10T00:54:17;94596.31;;;26.89;36.80
43217;BME280;60511;42.686;23.300;2022-07-10T00:56:23;94598.22;;;26.85;36.94
43217;BME280;60511;42.686;23.300;2022-07-10T00:58:24;94600.13;;;26.84;37.05
43217;BME280;60511;42.686;23.300;2022-07-10T01:00:24;94581.91;;;26.85;37.01
43217;BME280;60511;42.686;23.300;2022-07-10T01:02:25;94596.31;;;26.89;36.88
43217;BME280;60511;42.686;23.300;2022-07-10T01:04:26;94593.97;;;26.88;37.03
43217;BME280;60511;42.686;23.300;2022-07-10T01:06:26;94588.16;;;26.89;36.88
43217;BME280;60511;42.686;23.300;2022-07-10T01:08:26;94591.25;;;26.88;36.93
43217;BME280;60511;42.686;23.300;2022-07-10T01:10:27;94584.22;;;26.83;37.03
43217;BME280;60511;42.686;23.300;2022-07-10T01:12:27;94597.88;;;26.94;36.84
43217;BME280;60511;42.686;23.300;2022-07-10T01:14:28;94585.03;;;26.91;36.72
43217;BME280;60511;42.686;23.300;2022-07-10T01:16:29;94586.94;;;26.83;36.81
43217;BME280;60511;42.686;23.300;2022-07-10T01:18:30;94590.44;;;26.83;37.06
43217;BME280;60511;42.686;23.300;2022-07-10T01:20:31;94588.50;;;26.84;36.93
43217;BME280;60511;42.686;23.300;2022-07-10T01:22:32;94579.97;;;26.85;36.95
43217;BME280;60511;42.686;23.300;2022-07-10T01:24:32;94578.41;;;26.84;36.94
43217;BME280;60511;42.686;23.300;2022-07-10T01:26:33;94585.81;;;26.88;36.88
43217;BME280;60511;42.686;23.300;2022-07-10T01:28:33;94582.72;;;26.89;36.96
43217;BME280;60511;42.686;23.300;2022-07-10T01:30:35;94581.56;;;26.90;36.66
43217;BME280;60511;42.686;23.300;2022-07-10T01:32:36;94578.03;;;26.86;36.91
43217;BME280;60511;42.686;23.300;2022-07-10T01:34:36;94578.44;;;26.88;36.88
43217;BME280;60511;42.686;23.300;2022-07-10T01:36:37;94573.41;;;26.90;36.96
43217;BME280;60511;42.686;23.300;2022-07-10T01:38:38;94571.81;;;26.85;36.88
43217;BME280;60511;42.686;23.300;2022-07-10T01:40:39;94571.88;;;26.89;36.88
43217;BME280;60511;42.686;23.300;2022-07-10T01:42:39;94565.25;;;26.90;36.73
43217;BME280;60511;42.686;23.300;2022-07-10T01:44:39;94569.53;;;26.88;36.73
43217;BME280;60511;42.686;23.300;2022-07-10T01:46:46;94561.75;;;26.86;36.98
43217;BME280;60511;42.686;23.300;2022-07-10T01:48:46;94558.66;;;26.88;36.93
43217;BME280;60511;42.686;23.300;2022-07-10T01:50:46;94559.44;;;26.88;36.78
43217;BME280;60511;42.686;23.300;2022-07-10T01:52:46;94564.06;;;26.84;36.73
43217;BME280;60511;42.686;23.300;2022-07-10T01:54:47;94565.63;;;26.85;36.75
43217;BME280;60511;42.686;23.300;2022-07-10T01:56:47;94567.19;;;26.90;36.83
43217;BME280;60511;42.686;23.300;2022-07-10T01:58:48;94559.44;;;26.88;36.64
43217;BME280;60511;42.686;23.300;2022-07-10T02:00:48;94563.72;;;26.89;36.60
43217;BME280;60511;42.686;23.300;2022-07-10T02:02:48;94557.81;;;26.80;36.77
43217;BME280;60511;42.686;23.300;2022-07-10T02:05:08;94560.09;;;26.74;37.00
43217;BME280;60511;42.686;23.300;2022-07-10T02:07:09;94549.69;;;26.83;36.73
43217;BME280;60511;42.686;23.300;2022-07-10T02:09:09;94555.91;;;26.84;36.61
43217;BME280;60511;42.686;23.300;2022-07-10T02:11:10;94555.13;;;26.83;36.83
43217;BME280;60511;42.686;23.300;2022-07-10T02:13:12;94553.16;;;26.80;36.81
43217;BME280;60511;42.686;23.300;2022-07-10T02:15:14;94548.53;;;26.81;36.84
43217;BME280;60511;42.686;23.300;2022-07-10T02:17:15;94550.88;;;26.86;36.68
43217;BME280;60511;42.686;23.300;2022-07-10T02:19:16;94547.03;;;26.87;36.72
43217;BME280;60511;42.686;23.300;2022-07-10T02:21:16;94552.75;;;26.78;36.64
43217;BME280;60511;42.686;23.300;2022-07-10T02:23:16;94551.25;;;26.84;36.67
43217;BME280;60511;42.686;23.300;2022-07-10T02:25:17;94551.28;;;26.88;36.77
43217;BME280;60511;42.686;23.300;2022-07-10T02:27:17;94552.06;;;26.89;36.65
43217;BME280;60511;42.686;23.300;2022-07-10T02:29:17;94548.19;;;26.90;36.66
43217;BME280;60511;42.686;23.300;2022-07-10T02:31:18;94553.16;;;26.80;36.57
43217;BME280;60511;42.686;23.300;2022-07-10T02:33:18;94549.34;;;26.85;36.73
43217;BME280;60511;42.686;23.300;2022-07-10T02:35:18;94550.41;;;26.73;36.72
43217;BME280;60511;42.686;23.300;2022-07-10T02:37:19;94547.72;;;26.80;36.76
43217;BME280;60511;42.686;23.300;2022-07-10T02:39:20;94545.81;;;26.81;36.40
43217;BME280;60511;42.686;23.300;2022-07-10T02:41:22;94551.59;;;26.79;36.77
43217;BME280;60511;42.686;23.300;2022-07-10T02:43:22;94557.44;;;26.81;36.66
43217;BME280;60511;42.686;23.300;2022-07-10T02:45:22;94555.50;;;26.82;36.70
43217;BME280;60511;42.686;23.300;2022-07-10T02:47:22;94553.97;;;26.81;36.58
43217;BME280;60511;42.686;23.300;2022-07-10T02:49:23;94559.34;;;26.77;36.50
43217;BME280;60511;42.686;23.300;2022-07-10T02:51:23;94555.88;;;26.80;36.62
43217;BME280;60511;42.686;23.300;2022-07-10T02:53:23;94558.59;;;26.80;36.62
43217;BME280;60511;42.686;23.300;2022-07-10T02:55:23;94563.25;;;26.80;36.74
43217;BME280;60511;42.686;23.300;2022-07-10T02:57:24;94565.59;;;26.81;36.62
43217;BME280;60511;42.686;23.300;2022-07-10T02:59:24;94574.09;;;26.80;36.59
43217;BME280;60511;42.686;23.300;2022-07-10T03:01:25;94569.44;;;26.77;36.75
43217;BME280;60511;42.686;23.300;2022-07-10T03:03:25;94568.28;;;26.78;36.65
43217;BME280;60511;42.686;23.300;2022-07-10T03:05:25;94565.59;;;26.81;36.67
43217;BME280;60511;42.686;23.300;2022-07-10T03:07:25;94570.97;;;26.78;36.72
43217;BME280;60511;42.686;23.300;2022-07-10T03:09:26;94573.34;;;26.79;36.55
43217;BME280;60511;42.686;23.300;2022-07-10T03:11:27;94575.63;;;26.77;36.36
43217;BME280;60511;42.686;23.300;2022-07-10T03:13:27;94574.88;;;26.80;36.60
43217;BME280;60511;42.686;23.300;2022-07-10T03:15:27;94581.50;;;26.83;36.47
43217;BME280;60511;42.686;23.300;2022-07-10T03:17:27;94581.50;;;26.83;36.40
43217;BME280;60511;42.686;23.300;2022-07-10T03:19:28;94579.97;;;26.85;36.58
43217;BME280;60511;42.686;23.300;2022-07-10T03:21:28;94581.06;;;26.77;36.62
43217;BME280;60511;42.686;23.300;2022-07-10T03:23:30;94578.41;;;26.81;36.54
43217;BME280;60511;42.686;23.300;2022-07-10T03:25:30;94580.75;;;26.86;36.28
43217;BME280;60511;42.686;23.300;2022-07-10T03:27:30;94582.69;;;26.85;36.61
43217;BME280;60511;42.686;23.300;2022-07-10T03:29:31;94582.28;;;26.83;36.57
43217;BME280;60511;42.686;23.300;2022-07-10T03:31:32;94581.47;;;26.79;36.63
43217;BME280;60511;42.686;23.300;2022-07-10T03:33:32;94587.72;;;26.83;36.60
43217;BME280;60511;42.686;23.300;2022-07-10T03:35:33;94585.78;;;26.84;36.49
43217;BME280;60511;42.686;23.300;2022-07-10T03:37:33;94581.91;;;26.85;36.38
43217;BME280;60511;42.686;23.300;2022-07-10T03:39:34;94585.00;;;26.83;36.41
43217;BME280;60511;42.686;23.300;2022-07-10T03:41:36;94575.69;;;26.81;36.40
43217;BME280;60511;42.686;23.300;2022-07-10T03:43:36;94577.19;;;26.78;36.26
43217;BME280;60511;42.686;23.300;2022-07-10T03:45:36;94583.41;;;26.79;36.31
43217;BME280;60511;42.686;23.300;2022-07-10T03:47:36;94576.41;;;26.78;36.49
43217;BME280;60511;42.686;23.300;2022-07-10T03:49:37;94572.97;;;26.81;36.49
43217;BME280;60511;42.686;23.300;2022-07-10T03:51:38;94575.69;;;26.81;36.40
43217;BME280;60511;42.686;23.300;2022-07-10T03:53:39;94573.78;;;26.85;36.15
43217;BME280;60511;42.686;23.300;2022-07-10T03:55:39;94570.25;;;26.81;36.58
43217;BME280;60511;42.686;23.300;2022-07-10T03:57:39;94567.50;;;26.77;36.53
43217;BME280;60511;42.686;23.300;2022-07-10T03:59:55;94566.72;;;26.80;36.36
43217;BME280;60511;42.686;23.300;2022-07-10T04:01:55;94565.59;;;26.81;36.21
43217;BME280;60511;42.686;23.300;2022-07-10T04:03:56;94562.09;;;26.84;36.40
43217;BME280;60511;42.686;23.300;2022-07-10T04:05:56;94566.41;;;26.85;36.21
43217;BME280;60511;42.686;23.300;2022-07-10T04:07:56;94565.91;;;26.76;36.50
43217;BME280;60511;42.686;23.300;2022-07-10T04:09:57;94565.22;;;26.83;36.35
43217;BME280;60511;42.686;23.300;2022-07-10T04:11:57;94568.34;;;26.85;36.27
43217;BME280;60511;42.686;23.300;2022-07-10T04:13:57;94563.69;;;26.85;36.21
43217;BME280;60511;42.686;23.300;2022-07-10T04:15:58;94563.31;;;26.87;36.42
43217;BME280;60511;42.686;23.300;2022-07-10T04:17:58;94560.59;;;26.87;36.28
43217;BME280;60511;42.686;23.300;2022-07-10T04:19:59;94557.88;;;26.87;36.39
43217;BME280;60511;42.686;23.300;2022-07-10T04:21:59;94556.34;;;26.90;36.26
43217;BME280;60511;42.686;23.300;2022-07-10T04:24:00;94552.47;;;26.91;36.08
43217;BME280;60511;42.686;23.300;2022-07-10T04:26:00;94547.03;;;26.87;36.32
43217;BME280;60511;42.686;23.300;2022-07-10T04:28:00;94552.03;;;26.85;36.33
43217;BME280;60511;42.686;23.300;2022-07-10T04:30:01;94548.94;;;26.86;36.41
43217;BME280;60511;42.686;23.300;2022-07-10T04:32:01;94550.09;;;26.85;36.23
43217;BME280;60511;42.686;23.300;2022-07-10T04:34:02;94555.88;;;26.80;36.45
43217;BME280;60511;42.686;23.300;2022-07-10T04:36:02;94547.75;;;26.84;36.41
43217;BME280;60511;42.686;23.300;2022-07-10T04:38:03;94550.47;;;26.84;36.16
43217;BME280;60511;42.686;23.300;2022-07-10T04:40:03;94547.75;;;26.84;36.28
43217;BME280;60511;42.686;23.300;2022-07-10T04:42:05;94562.50;;;26.86;36.41
43217;BME280;60511;42.686;23.300;2022-07-10T04:44:06;94562.50;;;26.86;36.21
43217;BME280;60511;42.686;23.300;2022-07-10T04:46:06;94552.06;;;26.89;36.26
43217;BME280;60511;42.686;23.300;2022-07-10T04:48:07;94550.88;;;26.86;36.41
43217;BME280;60511;42.686;23.300;2022-07-10T04:50:08;94544.31;;;26.87;36.28
43217;BME280;60511;42.686;23.300;2022-07-10T04:52:08;94555.16;;;26.91;36.26
43217;BME280;60511;42.686;23.300;2022-07-10T04:54:09;94556.34;;;26.90;36.08
43217;BME280;60511;42.686;23.300;2022-07-10T04:56:09;94561.81;;;26.93;36.24
43217;BME280;60511;42.686;23.300;2022-07-10T04:58:11;94553.63;;;26.90;36.23
43217;BME280;60511;42.686;23.300;2022-07-10T05:00:11;94553.25;;;26.91;36.14
43217;BME280;60511;42.686;23.300;2022-07-10T05:02:11;94555.97;;;26.91;36.20
43217;BME280;60511;42.686;23.300;2022-07-10T05:04:12;94550.53;;;26.91;36.26
43217;BME280;60511;42.686;23.300;2022-07-10T05:06:12;94550.91;;;26.90;36.29
43217;BME280;60511;42.686;23.300;2022-07-10T05:08:13;94551.72;;;26.94;35.98
43217;BME280;60511;42.686;23.300;2022-07-10T05:10:13;94556.00;;;26.98;35.87
43217;BME280;60511;42.686;23.300;2022-07-10T05:12:13;94545.47;;;26.90;36.31
43217;BME280;60511;42.686;23.300;2022-07-10T05:14:15;94552.03;;;26.85;36.23
43217;BME280;60511;42.686;23.300;2022-07-10T05:16:18;94552.84;;;26.89;36.13
43217;BME280;60511;42.686;23.300;2022-07-10T05:18:18;94554.00;;;26.88;36.33
43217;BME280;60511;42.686;23.300;2022-07-10T05:20:19;94538.47;;;26.89;36.20
43217;BME280;60511;42.686;23.300;2022-07-10T05:22:19;94539.66;;;26.88;36.42
43217;BME280;60511;42.686;23.300;2022-07-10T05:24:20;94552.47;;;26.91;36.34
43217;BME280;60511;42.686;23.300;2022-07-10T05:26:20;94550.94;;;26.97;36.07
43217;BME280;60511;42.686;23.300;2022-07-10T05:28:21;94549.41;;;26.96;36.13
43217;BME280;60511;42.686;23.300;2022-07-10T05:30:22;94546.69;;;26.96;36.36
43217;BME280;60511;42.686;23.300;2022-07-10T05:32:22;94552.13;;;26.96;36.24
43217;BME280;60511;42.686;23.300;2022-07-10T05:34:24;94542.81;;;26.97;35.94
43217;BME280;60511;42.686;23.300;2022-07-10T05:36:25;94541.59;;;26.91;36.30
43217;BME280;60511;42.686;23.300;2022-07-10T05:38:25;94546.31;;;26.97;36.23
43217;BME280;60511;42.686;23.300;2022-07-10T05:40:25;94546.69;;;26.96;36.16
43217;BME280;60511;42.686;23.300;2022-07-10T05:42:26;94546.72;;;26.99;36.13
43217;BME280;60511;42.686;23.300;2022-07-10T05:44:26;94544.00;;;26.99;36.15
43217;BME280;60511;42.686;23.300;2022-07-10T05:46:26;94540.88;;;26.97;36.21
43217;BME280;60511;42.686;23.300;2022-07-10T05:48:27;94538.94;;;26.98;36.35
43217;BME280;60511;42.686;23.300;2022-07-10T05:50:27;94551.00;;;27.04;35.98
43217;BME280;60511;42.686;23.300;2022-07-10T05:52:27;94544.00;;;26.99;35.96
43217;BME280;60511;42.686;23.300;2022-07-10T05:54:28;94542.78;;;26.93;36.12
43217;BME280;60511;42.686;23.300;2022-07-10T05:56:28;94550.56;;;26.98;35.82
43217;BME280;60511;42.686;23.300;2022-07-10T05:58:28;94543.59;;;27.01;36.05
43217;BME280;60511;42.686;23.300;2022-07-10T06:00:29;94549.44;;;27.03;35.98
43217;BME280;60511;42.686;23.300;2022-07-10T06:02:29;94544.41;;;27.05;36.01
43217;BME280;60511;42.686;23.300;2022-07-10T06:04:29;94544.81;;;27.07;35.94
43217;BME280;60511;42.686;23.300;2022-07-10T06:06:30;94548.72;;;27.10;35.96
43217;BME280;60511;42.686;23.300;2022-07-10T06:08:30;94556.41;;;27.00;35.82
43217;BME280;60511;42.686;23.300;2022-07-10T06:10:31;94542.84;;;27.04;35.85
43217;BME280;60511;42.686;23.300;2022-07-10T06:12:31;94547.94;;;27.09;35.78
43217;BME280;60511;42.686;23.300;2022-07-10T06:14:32;94541.72;;;27.09;35.63
43217;BME280;60511;42.686;23.300;2022-07-10T06:16:32;94542.50;;;27.09;35.78
43217;BME280;60511;42.686;23.300;2022-07-10T06:18:33;94542.88;;;27.11;35.77
43217;BME280;60511;42.686;23.300;2022-07-10T06:20:33;94546.00;;;27.10;36.03
43217;BME280;60511;42.686;23.300;2022-07-10T06:22:33;94536.69;;;27.11;35.84
43217;BME280;60511;42.686;23.300;2022-07-10T06:24:34;94541.78;;;27.16;35.88
43217;BME280;60511;42.686;23.300;2022-07-10T06:26:34;94541.31;;;27.06;35.78
43217;BME280;60511;42.686;23.300;2022-07-10T06:28:34;94544.84;;;27.11;35.82
43217;BME280;60511;42.686;23.300;2022-07-10T06:30:37;94536.31;;;27.12;35.63
43217;BME280;60511;42.686;23.300;2022-07-10T06:32:38;94538.63;;;27.10;35.71
43217;BME280;60511;42.686;23.300;2022-07-10T06:34:38;94535.53;;;27.15;35.95
43217;BME280;60511;42.686;23.300;2022-07-10T06:36:38;94532.81;;;27.15;35.69
43217;BME280;60511;42.686;23.300;2022-07-10T06:38:38;94534.78;;;27.15;35.57
43217;BME280;60511;42.686;23.300;2022-07-10T06:40:39;94537.13;;;27.16;35.86
43217;BME280;60511;42.686;23.300;2022-07-10T06:42:41;94533.63;;;27.16;35.75
43217;BME280;60511;42.686;23.300;2022-07-10T06:44:42;94536.75;;;27.18;35.74
43217;BME280;60511;42.686;23.300;2022-07-10T06:46:42;94531.63;;;27.09;35.32
43217;BME280;60511;42.686;23.300;2022-07-10T06:49:02;94537.06;;;27.09;35.68
43217;BME280;60511;42.686;23.300;2022-07-10T06:51:04;94531.69;;;27.16;35.75
43217;BME280;60511;42.686;23.300;2022-07-10T06:53:05;94533.63;;;27.19;35.58
43217;BME280;60511;42.686;23.300;2022-07-10T06:55:06;94527.78;;;27.17;35.63
43217;BME280;60511;42.686;23.300;2022-07-10T06:57:07;94531.31;;;27.18;35.73
43217;BME280;60511;42.686;23.300;2022-07-10T06:59:08;94526.28;;;27.20;35.85
43217;BME280;60511;42.686;23.300;2022-07-10T07:01:08;94531.72;;;27.20;35.74
43217;BME280;60511;42.686;23.300;2022-07-10T07:03:08;94535.59;;;27.22;35.85
43217;BME280;60511;42.686;23.300;2022-07-10T07:05:09;94535.97;;;27.21;35.77
43217;BME280;60511;42.686;23.300;2022-07-10T07:07:10;94527.88;;;27.24;35.55
43217;BME280;60511;42.686;23.300;2022-07-10T07:09:10;94529.03;;;27.23;35.78
43217;BME280;60511;42.686;23.300;2022-07-10T07:11:11;94472.94;;;26.90;35.46
43217;BME280;60511;42.686;23.300;2022-07-10T07:13:11;94522.81;;;27.23;35.53
43217;BME280;60511;42.686;23.300;2022-07-10T07:15:12;94525.16;;;27.24;35.42
43217;BME280;60511;42.686;23.300;2022-07-10T07:17:12;94521.28;;;27.25;35.49
43217;BME280;60511;42.686;23.300;2022-07-10T07:19:21;94527.88;;;27.24;35.56
43217;BME280;60511;42.686;23.300;2022-07-10T07:21:30;94522.84;;;27.27;35.64
43217;BME280;60511;42.686;23.300;2022-07-10T07:23:49;94523.25;;;27.29;35.55
43217;BME280;60511;42.686;23.300;2022-07-10T07:25:49;94525.56;;;27.27;35.69
43217;BME280;60511;42.686;23.300;2022-07-10T07:27:50;94519.34;;;27.26;35.69
43217;BME280;60511;42.686;23.300;2022-07-10T07:29:50;94525.97;;;27.29;35.49
43217;BME280;60511;42.686;23.300;2022-07-10T07:31:50;94513.16;;;27.29;35.63
43217;BME280;60511;42.686;23.300;2022-07-10T07:33:50;94519.34;;;27.30;35.81
43217;BME280;60511;42.686;23.300;2022-07-10T07:35:51;94514.72;;;27.30;35.61
43217;BME280;60511;42.686;23.300;2022-07-10T07:37:51;94516.22;;;27.28;35.84
43217;BME280;60511;42.686;23.300;2022-07-10T07:39:51;94520.16;;;27.30;35.62
43217;BME280;60511;42.686;23.300;2022-07-10T07:41:52;94516.25;;;27.31;35.79
43217;BME280;60511;42.686;23.300;2022-07-10T07:43:52;94521.31;;;27.33;35.89
43217;BME280;60511;42.686;23.300;2022-07-10T07:45:52;94518.97;;;27.31;35.72
43217;BME280;60511;42.686;23.300;2022-07-10T07:49:53;94518.63;;;27.36;35.48
43217;BME280;60511;42.686;23.300;2022-07-10T07:51:53;94517.06;;;27.35;35.71
43217;BME280;60511;42.686;23.300;2022-07-10T07:53:54;94522.88;;;27.37;35.76
43217;BME280;60511;42.686;23.300;2022-07-10T07:55:54;94521.75;;;27.38;35.63
43217;BME280;60511;42.686;23.300;2022-07-10T07:57:55;94517.84;;;27.36;35.58
43217;BME280;60511;42.686;23.300;2022-07-10T07:59:56;94508.16;;;27.38;35.67
43217;BME280;60511;42.686;23.300;2022-07-10T08:01:56;94515.91;;;27.40;35.07
43217;BME280;60511;42.686;23.300;2022-07-10T08:03:56;94503.88;;;27.41;35.68
43217;BME280;60511;42.686;23.300;2022-07-10T08:05:56;94502.75;;;27.45;35.62
43217;BME280;60511;42.686;23.300;2022-07-10T08:07:57;94497.69;;;27.44;35.17
43217;BME280;60511;42.686;23.300;2022-07-10T08:09:59;94496.91;;;27.43;35.56
43217;BME280;60511;42.686;23.300;2022-07-10T08:11:59;94497.28;;;27.42;35.39
43217;BME280;60511;42.686;23.300;2022-07-10T08:13:59;94500.78;;;27.39;34.97
43217;BME280;60511;42.686;23.300;2022-07-10T08:16:00;94503.13;;;27.44;35.47
43217;BME280;60511;42.686;23.300;2022-07-10T08:18:00;94495.75;;;27.44;34.72
43217;BME280;60511;42.686;23.300;2022-07-10T08:20:01;94501.19;;;27.44;35.24
43217;BME280;60511;42.686;23.300;2022-07-10T08:22:01;94504.69;;;27.45;35.41
43217;BME280;60511;42.686;23.300;2022-07-10T08:24:02;94503.13;;;27.48;34.84
43217;BME280;60511;42.686;23.300;2022-07-10T08:26:02;94505.50;;;27.53;34.75
43217;BME280;60511;42.686;23.300;2022-07-10T08:28:03;94508.63;;;27.55;34.65
43217;BME280;60511;42.686;23.300;2022-07-10T08:30:07;94508.22;;;27.53;34.68
43217;BME280;60511;42.686;23.300;2022-07-10T08:32:09;94501.97;;;27.52;35.11
43217;BME280;60511;42.686;23.300;2022-07-10T08:34:10;94509.41;;;27.59;34.07
43217;BME280;60511;42.686;23.300;2022-07-10T08:36:10;94512.47;;;27.54;34.98
43217;BME280;60511;42.686;23.300;2022-07-10T08:38:11;94516.38;;;27.56;35.22
43217;BME280;60511;42.686;23.300;2022-07-10T08:40:13;94506.28;;;27.53;35.20
43217;BME280;60511;42.686;23.300;2022-07-10T08:42:13;94513.66;;;27.53;34.73
43217;BME280;60511;42.686;23.300;2022-07-10T08:44:15;94509.00;;;27.53;34.98
43217;BME280;60511;42.686;23.300;2022-07-10T08:46:16;94510.53;;;27.51;34.87
43217;BME280;60511;42.686;23.300;2022-07-10T08:48:19;94503.94;;;27.52;35.17
43217;BME280;60511;42.686;23.300;2022-07-10T08:50:21;94500.44;;;27.51;35.33
43217;BME280;60511;42.686;23.300;2022-07-10T08:54:22;94505.09;;;27.54;35.18
43217;BME280;60511;42.686;23.300;2022-07-10T08:56:23;94502.00;;;27.56;35.04
43217;BME280;60511;42.686;23.300;2022-07-10T08:58:24;94505.91;;;27.55;34.99
43217;BME280;60511;42.686;23.300;2022-07-10T09:00:25;94498.91;;;27.57;35.09
43217;BME280;60511;42.686;23.300;2022-07-10T09:02:26;94505.50;;;27.56;34.85
43217;BME280;60511;42.686;23.300;2022-07-10T09:04:26;94504.72;;;27.56;34.98
43217;BME280;60511;42.686;23.300;2022-07-10T09:06:29;94498.13;;;27.57;35.11
43217;BME280;60511;42.686;23.300;2022-07-10T09:08:30;94491.53;;;27.58;35.10
43217;BME280;60511;42.686;23.300;2022-07-10T09:10:33;94495.81;;;27.59;34.77
43217;BME280;60511;42.686;23.300;2022-07-10T09:14:49;94490.00;;;27.60;35.08
43217;BME280;60511;42.686;23.300;2022-07-10T09:16:50;94494.25;;;27.61;35.10
43217;BME280;60511;42.686;23.300;2022-07-10T09:18:50;94488.44;;;27.63;34.94
43217;BME280;60511;42.686;23.300;2022-07-10T09:20:50;94489.63;;;27.65;34.86
43217;BME280;60511;42.686;23.300;2022-07-10T09:22:51;94488.44;;;27.63;35.02
43217;BME280;60511;42.686;23.300;2022-07-10T09:24:52;94488.47;;;27.67;34.95
43217;BME280;60511;42.686;23.300;2022-07-10T09:29:08;94483.44;;;27.69;34.69
43217;BME280;60511;42.686;23.300;2022-07-10T09:31:08;94481.84;;;27.68;34.66
43217;BME280;60511;42.686;23.300;2022-07-10T09:33:22;94478.75;;;27.69;34.71
43217;BME280;60511;42.686;23.300;2022-07-10T09:35:31;94481.88;;;27.71;34.99
43217;BME280;60511;42.686;23.300;2022-07-10T09:37:50;94477.22;;;27.72;34.70
43217;BME280;60511;42.686;23.300;2022-07-10T09:39:51;94484.19;;;27.69;34.92
43217;BME280;60511;42.686;23.300;2022-07-10T09:41:51;94481.88;;;27.71;34.86
43217;BME280;60511;42.686;23.300;2022-07-10T09:43:56;94479.94;;;27.72;34.85
43217;BME280;60511;42.686;23.300;2022-07-10T09:45:56;94478.38;;;27.71;34.83
43217;BME280;60511;42.686;23.300;2022-07-10T09:47:57;94477.97;;;27.72;34.67
43217;BME280;60511;42.686;23.300;2022-07-10T09:50:01;94475.66;;;27.71;34.86
43217;BME280;60511;42.686;23.300;2022-07-10T09:52:01;94476.84;;;27.73;34.62
43217;BME280;60511;42.686;23.300;2022-07-10T09:54:03;94471.41;;;27.73;34.62
43217;BME280;60511;42.686;23.300;2022-07-10T09:56:03;94476.84;;;27.73;34.77
43217;BME280;60511;42.686;23.300;2022-07-10T09:58:07;94471.00;;;27.75;34.58
43217;BME280;60511;42.686;23.300;2022-07-10T10:00:07;94468.69;;;27.73;34.72
43217;BME280;60511;42.686;23.300;2022-07-10T10:02:08;94465.94;;;27.73;34.64
43217;BME280;60511;42.686;23.300;2022-07-10T10:04:09;94467.50;;;27.74;34.60
43217;BME280;60511;42.686;23.300;2022-07-10T10:06:16;94468.28;;;27.75;34.70
43217;BME280;60511;42.686;23.300;2022-07-10T10:08:17;94469.06;;;27.75;34.49
43217;BME280;60511;42.686;23.300;2022-07-10T10:10:19;94469.84;;;27.76;34.51
43217;BME280;60511;42.686;23.300;2022-07-10T10:12:21;94471.78;;;27.75;34.77
43217;BME280;60511;42.686;23.300;2022-07-10T10:14:27;94462.47;;;27.73;34.75
43217;BME280;60511;42.686;23.300;2022-07-10T10:16:28;94473.31;;;27.76;34.43
43217;BME280;60511;42.686;23.300;2022-07-10T10:18:29;94467.88;;;27.76;34.46
43217;BME280;60511;42.686;23.300;2022-07-10T10:20:30;94467.88;;;27.76;34.26
43217;BME280;60511;42.686;23.300;2022-07-10T10:22:40;94463.63;;;27.75;34.74
43217;BME280;60511;42.686;23.300;2022-07-10T10:24:40;94471.00;;;27.75;34.46
43217;BME280;60511;42.686;23.300;2022-07-10T10:26:42;94464.41;;;27.76;34.63
43217;BME280;60511;42.686;23.300;2022-07-10T10:28:43;94457.00;;;27.76;34.45
43217;BME280;60511;42.686;23.300;2022-07-10T10:30:45;94469.84;;;27.76;34.64
43217;BME280;60511;42.686;23.300;2022-07-10T10:32:45;94458.97;;;27.76;34.50
43217;BME280;60511;42.686;23.300;2022-07-10T10:34:46;94457.81;;;27.77;34.57
43217;BME280;60511;42.686;23.300;2022-07-10T10:36:55;94451.97;;;27.78;34.42
43217;BME280;60511;42.686;23.300;2022-07-10T10:40:56;94438.78;;;27.77;34.65
43217;BME280;60511;42.686;23.300;2022-07-10T10:47:28;94451.97;;;27.82;34.11
43217;BME280;60511;42.686;23.300;2022-07-10T10:49:52;94447.72;;;27.81;34.07